sensor_id;sensor_type;location;lat;lon;timestamp;pressure;altitude;pressure_sealevel;temperature;humidity
68871;BME280;55906;52.278;6.808;2023-03-15T00:02:13;100907.34;;;2.74;89.46
68871;BME280;55906;52.278;6.808;2023-03-15T00:04:40;100914.06;;;2.70;90.32
68871;BME280;55906;52.278;6.808;2023-03-15T00:07:06;100908.72;;;2.67;89.44
68871;BME280;55906;52.278;6.808;2023-03-15T00:09:33;100908.44;;;2.63;89.98
68871;BME280;55906;52.278;6.808;2023-03-15T00:12:00;100908.44;;;2.63;89.47
68871;BME280;55906;52.278;6.808;2023-03-15T00:14:28;100909.03;;;2.58;90.26
68871;BME280;55906;52.278;6.808;2023-03-15T00:16:55;100918.75;;;2.61;90.32
68871;BME280;55906;52.278;6.808;2023-03-15T00:19:22;100917.03;;;2.62;90.79
68871;BME280;55906;52.278;6.808;2023-03-15T00:21:49;100906.25;;;2.55;90.62
68871;BME280;55906;52.278;6.808;2023-03-15T00:24:15;100913.78;;;2.51;91.30
68871;BME280;55906;52.278;6.808;2023-03-15T00:26:42;100926.84;;;2.52;91.79
68871;BME280;55906;52.278;6.808;2023-03-15T00:29:08;100927.47;;;2.48;91.42
68871;BME280;55906;52.278;6.808;2023-03-15T00:31:36;100919.78;;;2.50;91.58
68871;BME280;55906;52.278;6.808;2023-03-15T00:34:03;100935.34;;;2.50;91.09
68871;BME280;55906;52.278;6.808;2023-03-15T00:36:31;100946.63;;;2.50;91.59
68871;BME280;55906;52.278;6.808;2023-03-15T00:38:57;100955.13;;;2.48;91.99
68871;BME280;55906;52.278;6.808;2023-03-15T00:41:24;100935.53;;;2.53;91.05
68871;BME280;55906;52.278;6.808;2023-03-15T00:43:51;100940.81;;;2.54;90.76
68871;BME280;55906;52.278;6.808;2023-03-15T00:46:18;100959.72;;;2.52;91.40
68871;BME280;55906;52.278;6.808;2023-03-15T00:48:48;100963.56;;;2.58;91.11
68871;BME280;55906;52.278;6.808;2023-03-15T00:51:17;100970.19;;;2.53;90.90
68871;BME280;55906;52.278;6.808;2023-03-15T00:53:45;100978.69;;;2.51;90.82
68871;BME280;55906;52.278;6.808;2023-03-15T00:56:15;100971.16;;;2.55;91.13
68871;BME280;55906;52.278;6.808;2023-03-15T00:58:42;100971.34;;;2.58;90.58
68871;BME280;55906;52.278;6.808;2023-03-15T01:01:11;100980.94;;;2.60;90.57
68871;BME280;55906;52.278;6.808;2023-03-15T01:03:38;100980.03;;;2.59;90.31
68871;BME280;55906;52.278;6.808;2023-03-15T01:06:08;100977.34;;;2.57;90.31
68871;BME280;55906;52.278;6.808;2023-03-15T01:08:35;100977.66;;;2.62;89.99
68871;BME280;55906;52.278;6.808;2023-03-15T01:11:02;100971.66;;;2.63;90.70
68871;BME280;55906;52.278;6.808;2023-03-15T01:13:29;100988.22;;;2.65;90.16
68871;BME280;55906;52.278;6.808;2023-03-15T01:15:56;100983.03;;;2.65;90.93
68871;BME280;55906;52.278;6.808;2023-03-15T01:18:22;100987.50;;;2.68;91.06
68871;BME280;55906;52.278;6.808;2023-03-15T01:20:49;100988.59;;;2.71;90.44
68871;BME280;55906;52.278;6.808;2023-03-15T01:23:17;100991.44;;;2.76;90.79
68871;BME280;55906;52.278;6.808;2023-03-15T01:25:44;100998.44;;;2.77;90.59
68871;BME280;55906;52.278;6.808;2023-03-15T01:28:10;100996.91;;;2.80;90.38
68871;BME280;55906;52.278;6.808;2023-03-15T01:30:37;100995.22;;;2.81;90.46
68871;BME280;55906;52.278;6.808;2023-03-15T01:33:04;101003.81;;;2.80;90.07
68871;BME280;55906;52.278;6.808;2023-03-15T01:35:31;101002.91;;;2.79;89.92
68871;BME280;55906;52.278;6.808;2023-03-15T01:37:57;101005.41;;;2.78;90.30
68871;BME280;55906;52.278;6.808;2023-03-15T01:40:25;100998.78;;;2.83;89.43
68871;BME280;55906;52.278;6.808;2023-03-15T01:43:00;100990.81;;;2.80;89.17
68871;BME280;55906;52.278;6.808;2023-03-15T01:48:52;101005.06;;;2.72;89.72
68871;BME280;55906;52.278;6.808;2023-03-15T01:51:23;101003.28;;;2.71;89.45
68871;BME280;55906;52.278;6.808;2023-03-15T01:53:54;101006.69;;;2.70;90.58
68871;BME280;55906;52.278;6.808;2023-03-15T01:56:26;101001.28;;;2.67;90.78
68871;BME280;55906;52.278;6.808;2023-03-15T01:58:56;101015.81;;;2.63;90.74
68871;BME280;55906;52.278;6.808;2023-03-15T02:01:24;101024.56;;;2.65;90.04
68871;BME280;55906;52.278;6.808;2023-03-15T02:03:54;101016.06;;;2.68;90.79
68871;BME280;55906;52.278;6.808;2023-03-15T02:06:22;101028.44;;;2.72;89.93
68871;BME280;55906;52.278;6.808;2023-03-15T02:08:51;101027.97;;;2.64;90.27
68871;BME280;55906;52.278;6.808;2023-03-15T02:11:20;101044.63;;;2.68;90.30
68871;BME280;55906;52.278;6.808;2023-03-15T02:13:48;101042.94;;;2.68;90.68
68871;BME280;55906;52.278;6.808;2023-03-15T02:16:16;101046.63;;;2.72;90.59
68871;BME280;55906;52.278;6.808;2023-03-15T02:18:43;101057.00;;;2.72;90.25
68871;BME280;55906;52.278;6.808;2023-03-15T02:21:20;101062.38;;;2.75;90.82
68871;BME280;55906;52.278;6.808;2023-03-15T02:23:55;101058.09;;;2.75;90.22
68871;BME280;55906;52.278;6.808;2023-03-15T02:26:27;101060.78;;;2.77;90.24
68871;BME280;55906;52.278;6.808;2023-03-15T02:35:50;101070.63;;;2.82;90.34
68871;BME280;55906;52.278;6.808;2023-03-15T02:38:17;101063.66;;;2.81;90.25
68871;BME280;55906;52.278;6.808;2023-03-15T02:40:44;101073.31;;;2.84;89.91
68871;BME280;55906;52.278;6.808;2023-03-15T02:43:13;101081.03;;;2.82;90.69
68871;BME280;55906;52.278;6.808;2023-03-15T02:45:41;101075.03;;;2.83;90.84
68871;BME280;55906;52.278;6.808;2023-03-15T02:48:10;101079.69;;;2.89;90.00
68871;BME280;55906;52.278;6.808;2023-03-15T02:50:37;101089.28;;;2.90;89.87
68871;BME280;55906;52.278;6.808;2023-03-15T02:53:05;101090.88;;;2.88;89.96
68871;BME280;55906;52.278;6.808;2023-03-15T02:55:32;101097.59;;;2.84;89.64
68871;BME280;55906;52.278;6.808;2023-03-15T02:57:59;101098.06;;;2.92;89.58
68871;BME280;55906;52.278;6.808;2023-03-15T03:00:25;101109.88;;;3.02;89.50
68871;BME280;55906;52.278;6.808;2023-03-15T03:02:52;101123.59;;;2.99;89.21
68871;BME280;55906;52.278;6.808;2023-03-15T03:05:19;101118.50;;;3.01;89.74
68871;BME280;55906;52.278;6.808;2023-03-15T03:07:45;101128.53;;;3.09;89.11
68871;BME280;55906;52.278;6.808;2023-03-15T03:10:18;101121.38;;;3.05;89.91
68871;BME280;55906;52.278;6.808;2023-03-15T03:12:45;101126.75;;;3.08;89.97
68871;BME280;55906;52.278;6.808;2023-03-15T03:15:12;101120.75;;;3.09;90.16
68871;BME280;55906;52.278;6.808;2023-03-15T03:17:38;101126.84;;;3.10;89.97
68871;BME280;55906;52.278;6.808;2023-03-15T03:20:06;101133.72;;;3.09;89.57
68871;BME280;55906;52.278;6.808;2023-03-15T03:22:34;101135.97;;;3.03;89.25
68871;BME280;55906;52.278;6.808;2023-03-15T03:25:01;101146.19;;;3.00;89.74
68871;BME280;55906;52.278;6.808;2023-03-15T03:27:30;101145.28;;;3.00;89.30
68871;BME280;55906;52.278;6.808;2023-03-15T03:30:01;101148.59;;;2.97;88.60
68871;BME280;55906;52.278;6.808;2023-03-15T03:32:27;101157.53;;;2.87;88.86
68871;BME280;55906;52.278;6.808;2023-03-15T03:34:54;101160.03;;;2.86;88.90
68871;BME280;55906;52.278;6.808;2023-03-15T03:37:21;101173.53;;;2.80;88.84
68871;BME280;55906;52.278;6.808;2023-03-15T03:39:47;101172.47;;;2.77;89.30
68871;BME280;55906;52.278;6.808;2023-03-15T03:42:14;101175.94;;;2.77;88.89
68871;BME280;55906;52.278;6.808;2023-03-15T03:44:42;101182.84;;;2.77;89.10
68871;BME280;55906;52.278;6.808;2023-03-15T03:47:09;101180.97;;;2.74;88.75
68871;BME280;55906;52.278;6.808;2023-03-15T03:49:35;101186.66;;;2.69;90.12
68871;BME280;55906;52.278;6.808;2023-03-15T03:52:02;101197.84;;;2.68;89.21
68871;BME280;55906;52.278;6.808;2023-03-15T03:54:29;101204.06;;;2.70;90.07
68871;BME280;55906;52.278;6.808;2023-03-15T03:56:57;101205.47;;;2.65;89.37
68871;BME280;55906;52.278;6.808;2023-03-15T03:59:23;101199.38;;;2.64;89.63
68871;BME280;55906;52.278;6.808;2023-03-15T04:01:51;101208.16;;;2.66;89.58
68871;BME280;55906;52.278;6.808;2023-03-15T04:04:18;101215.66;;;2.62;90.86
68871;BME280;55906;52.278;6.808;2023-03-15T04:06:45;101219.81;;;2.60;90.98
68871;BME280;55906;52.278;6.808;2023-03-15T04:09:11;101221.31;;;2.56;90.30
68871;BME280;55906;52.278;6.808;2023-03-15T04:11:39;101227.31;;;2.55;90.06
68871;BME280;55906;52.278;6.808;2023-03-15T04:14:07;101231.31;;;2.50;90.20
68871;BME280;55906;52.278;6.808;2023-03-15T04:16:33;101247.91;;;2.52;90.79
68871;BME280;55906;52.278;6.808;2023-03-15T04:19:02;101246.09;;;2.51;90.56
68871;BME280;55906;52.278;6.808;2023-03-15T04:21:28;101246.00;;;2.49;91.42
68871;BME280;55906;52.278;6.808;2023-03-15T04:23:56;101247.00;;;2.51;90.87
68871;BME280;55906;52.278;6.808;2023-03-15T04:26:23;101240.72;;;2.48;90.19
68871;BME280;55906;52.278;6.808;2023-03-15T04:28:52;101238.81;;;2.45;91.20
68871;BME280;55906;52.278;6.808;2023-03-15T04:31:18;101240.22;;;2.40;91.60
68871;BME280;55906;52.278;6.808;2023-03-15T04:33:45;101255.00;;;2.41;90.95
68871;BME280;55906;52.278;6.808;2023-03-15T04:36:13;101250.59;;;2.40;91.67
68871;BME280;55906;52.278;6.808;2023-03-15T04:38:43;101256.59;;;2.39;90.41
68871;BME280;55906;52.278;6.808;2023-03-15T04:41:11;101270.28;;;2.37;91.27
68871;BME280;55906;52.278;6.808;2023-03-15T04:43:37;101260.59;;;2.34;91.56
68871;BME280;55906;52.278;6.808;2023-03-15T04:46:04;101262.00;;;2.29;91.85
68871;BME280;55906;52.278;6.808;2023-03-15T04:48:31;101265.50;;;2.30;92.02
68871;BME280;55906;52.278;6.808;2023-03-15T04:50:57;101262.00;;;2.29;91.32
68871;BME280;55906;52.278;6.808;2023-03-15T04:53:26;101267.19;;;2.29;92.08
68871;BME280;55906;52.278;6.808;2023-03-15T04:55:52;101271.47;;;2.29;91.32
68871;BME280;55906;52.278;6.808;2023-03-15T04:58:19;101275.56;;;2.25;91.13
68871;BME280;55906;52.278;6.808;2023-03-15T05:00:46;101277.88;;;2.20;91.53
68871;BME280;55906;52.278;6.808;2023-03-15T05:03:12;101280.47;;;2.20;91.65
68871;BME280;55906;52.278;6.808;2023-03-15T05:05:39;101283.16;;;2.22;92.14
68871;BME280;55906;52.278;6.808;2023-03-15T05:08:06;101287.34;;;2.20;91.49
68871;BME280;55906;52.278;6.808;2023-03-15T05:10:34;101295.34;;;2.23;91.99
68871;BME280;55906;52.278;6.808;2023-03-15T05:13:00;101289.34;;;2.24;91.47
68871;BME280;55906;52.278;6.808;2023-03-15T05:15:27;101298.94;;;2.25;91.81
68871;BME280;55906;52.278;6.808;2023-03-15T05:17:53;101308.22;;;2.21;92.44
68871;BME280;55906;52.278;6.808;2023-03-15T05:20:20;101312.59;;;2.22;91.76
68871;BME280;55906;52.278;6.808;2023-03-15T05:22:47;101323.88;;;2.23;91.94
68871;BME280;55906;52.278;6.808;2023-03-15T05:25:14;101314.19;;;2.20;91.85
68871;BME280;55906;52.278;6.808;2023-03-15T05:27:42;101318.59;;;2.21;91.80
68871;BME280;55906;52.278;6.808;2023-03-15T05:30:11;101328.97;;;2.21;91.71
68871;BME280;55906;52.278;6.808;2023-03-15T05:32:39;101338.34;;;2.19;92.31
68871;BME280;55906;52.278;6.808;2023-03-15T05:35:09;101332.47;;;2.22;91.51
68871;BME280;55906;52.278;6.808;2023-03-15T05:37:37;101341.94;;;2.21;91.25
68871;BME280;55906;52.278;6.808;2023-03-15T05:40:04;101335.84;;;2.21;91.52
68871;BME280;55906;52.278;6.808;2023-03-15T05:42:32;101341.75;;;2.18;91.67
68871;BME280;55906;52.278;6.808;2023-03-15T05:45:00;101342.44;;;2.16;91.56
68871;BME280;55906;52.278;6.808;2023-03-15T05:47:27;101355.50;;;2.17;91.18
68871;BME280;55906;52.278;6.808;2023-03-15T05:49:53;101364.09;;;2.16;90.84
68871;BME280;55906;52.278;6.808;2023-03-15T05:52:20;101360.41;;;2.13;91.70
68871;BME280;55906;52.278;6.808;2023-03-15T05:54:47;101363.91;;;2.13;91.75
68871;BME280;55906;52.278;6.808;2023-03-15T05:57:13;101369.09;;;2.13;91.39
68871;BME280;55906;52.278;6.808;2023-03-15T05:59:40;101368.88;;;2.10;91.33
68871;BME280;55906;52.278;6.808;2023-03-15T06:02:08;101378.56;;;2.13;91.21
68871;BME280;55906;52.278;6.808;2023-03-15T06:04:36;101377.47;;;2.09;90.89
68871;BME280;55906;52.278;6.808;2023-03-15T06:07:03;101384.34;;;2.09;91.61
68871;BME280;55906;52.278;6.808;2023-03-15T06:09:29;101384.44;;;2.10;91.39
68871;BME280;55906;52.278;6.808;2023-03-15T06:11:56;101394.63;;;2.07;91.69
68871;BME280;55906;52.278;6.808;2023-03-15T06:14:23;101396.41;;;2.08;91.16
68871;BME280;55906;52.278;6.808;2023-03-15T06:16:50;101397.22;;;2.07;91.82
68871;BME280;55906;52.278;6.808;2023-03-15T06:19:18;101403.72;;;2.14;91.60
68871;BME280;55906;52.278;6.808;2023-03-15T06:21:45;101411.50;;;2.14;91.86
68871;BME280;55906;52.278;6.808;2023-03-15T06:24:12;101414.41;;;2.18;91.20
68871;BME280;55906;52.278;6.808;2023-03-15T06:26:39;101419.69;;;2.20;90.74
68871;BME280;55906;52.278;6.808;2023-03-15T06:29:05;101420.91;;;2.25;91.35
68871;BME280;55906;52.278;6.808;2023-03-15T06:31:32;101427.91;;;2.26;91.16
68871;BME280;55906;52.278;6.808;2023-03-15T06:33:59;101425.41;;;2.28;91.10
68871;BME280;55906;52.278;6.808;2023-03-15T06:36:27;101426.41;;;2.30;90.64
68871;BME280;55906;52.278;6.808;2023-03-15T06:38:55;101436.09;;;2.32;91.00
68871;BME280;55906;52.278;6.808;2023-03-15T06:41:21;101429.53;;;2.37;90.39
68871;BME280;55906;52.278;6.808;2023-03-15T06:43:48;101433.22;;;2.41;90.69
68871;BME280;55906;52.278;6.808;2023-03-15T06:46:15;101436.13;;;2.45;90.22
68871;BME280;55906;52.278;6.808;2023-03-15T06:48:41;101443.31;;;2.49;90.15
68871;BME280;55906;52.278;6.808;2023-03-15T06:51:08;101448.94;;;2.55;89.73
68871;BME280;55906;52.278;6.808;2023-03-15T06:53:36;101453.78;;;2.63;89.54
68871;BME280;55906;52.278;6.808;2023-03-15T06:56:03;101455.06;;;2.69;88.81
68871;BME280;55906;52.278;6.808;2023-03-15T06:58:30;101463.88;;;2.71;88.72
68871;BME280;55906;52.278;6.808;2023-03-15T07:00:57;101460.78;;;2.77;88.90
68871;BME280;55906;52.278;6.808;2023-03-15T07:03:23;101461.38;;;2.86;88.46
68871;BME280;55906;52.278;6.808;2023-03-15T07:05:50;101470.38;;;2.91;88.45
68871;BME280;55906;52.278;6.808;2023-03-15T07:08:18;101472.78;;;3.01;87.96
68871;BME280;55906;52.278;6.808;2023-03-15T07:10:47;101468.00;;;3.07;86.92
68871;BME280;55906;52.278;6.808;2023-03-15T07:13:14;101470.19;;;3.14;87.71
68871;BME280;55906;52.278;6.808;2023-03-15T07:15:41;101477.06;;;3.27;87.01
68871;BME280;55906;52.278;6.808;2023-03-15T07:18:08;101485.56;;;3.38;86.03
68871;BME280;55906;52.278;6.808;2023-03-15T07:20:35;101493.84;;;3.45;85.66
68871;BME280;55906;52.278;6.808;2023-03-15T07:23:02;101497.97;;;3.42;84.89
68871;BME280;55906;52.278;6.808;2023-03-15T07:25:28;101498.75;;;3.41;84.52
68871;BME280;55906;52.278;6.808;2023-03-15T07:27:56;101498.47;;;3.49;84.63
68871;BME280;55906;52.278;6.808;2023-03-15T07:30:23;101508.56;;;3.58;84.58
68871;BME280;55906;52.278;6.808;2023-03-15T07:32:50;101502.63;;;3.61;84.30
68871;BME280;55906;52.278;6.808;2023-03-15T07:35:16;101508.72;;;3.74;83.84
68871;BME280;55906;52.278;6.808;2023-03-15T07:37:43;101512.91;;;3.85;83.22
68871;BME280;55906;52.278;6.808;2023-03-15T07:40:11;101512.50;;;3.93;83.21
68871;BME280;55906;52.278;6.808;2023-03-15T07:42:38;101522.31;;;3.97;83.11
68871;BME280;55906;52.278;6.808;2023-03-15T07:45:07;101518.06;;;4.12;82.49
68871;BME280;55906;52.278;6.808;2023-03-15T07:47:34;101526.81;;;4.27;82.38
68871;BME280;55906;52.278;6.808;2023-03-15T07:50:01;101529.34;;;4.40;81.49
68871;BME280;55906;52.278;6.808;2023-03-15T07:52:28;101536.66;;;4.61;80.76
68871;BME280;55906;52.278;6.808;2023-03-15T07:54:54;101532.75;;;4.97;78.36
68871;BME280;55906;52.278;6.808;2023-03-15T07:57:21;101537.41;;;5.46;77.06
68871;BME280;55906;52.278;6.808;2023-03-15T07:59:48;101540.09;;;5.94;76.18
68871;BME280;55906;52.278;6.808;2023-03-15T08:02:18;101545.34;;;6.42;75.61
68871;BME280;55906;52.278;6.808;2023-03-15T08:04:44;101554.03;;;6.74;74.44
68871;BME280;55906;52.278;6.808;2023-03-15T08:07:12;101557.28;;;7.20;74.03
68871;BME280;55906;52.278;6.808;2023-03-15T08:09:39;101564.78;;;7.48;71.49
68871;BME280;55906;52.278;6.808;2023-03-15T08:12:06;101565.84;;;7.87;72.48
68871;BME280;55906;52.278;6.808;2023-03-15T08:14:33;101569.66;;;8.31;71.91
68871;BME280;55906;52.278;6.808;2023-03-15T08:17:00;101567.56;;;8.61;71.45
68871;BME280;55906;52.278;6.808;2023-03-15T08:19:27;101580.38;;;8.93;67.15
68871;BME280;55906;52.278;6.808;2023-03-15T08:21:54;101576.59;;;9.27;68.62
68871;BME280;55906;52.278;6.808;2023-03-15T08:24:21;101583.50;;;9.67;67.00
68871;BME280;55906;52.278;6.808;2023-03-15T08:26:48;101581.31;;;10.20;66.82
68871;BME280;55906;52.278;6.808;2023-03-15T08:29:15;101579.09;;;10.31;65.33
68871;BME280;55906;52.278;6.808;2023-03-15T08:31:42;101591.81;;;10.89;64.70
68871;BME280;55906;52.278;6.808;2023-03-15T08:34:08;101587.22;;;10.83;61.40
68871;BME280;55906;52.278;6.808;2023-03-15T08:36:37;101595.53;;;11.19;60.54
68871;BME280;55906;52.278;6.808;2023-03-15T08:39:04;101596.97;;;11.62;59.51
68871;BME280;55906;52.278;6.808;2023-03-15T08:41:31;101603.06;;;11.85;59.03
68871;BME280;55906;52.278;6.808;2023-03-15T08:43:57;101603.16;;;12.15;57.03
68871;BME280;55906;52.278;6.808;2023-03-15T08:46:24;101612.66;;;12.10;53.07
68871;BME280;55906;52.278;6.808;2023-03-15T08:48:51;101618.13;;;12.44;53.26
68871;BME280;55906;52.278;6.808;2023-03-15T08:51:17;101622.94;;;12.58;52.94
68871;BME280;55906;52.278;6.808;2023-03-15T08:53:47;101614.16;;;12.89;53.47
68871;BME280;55906;52.278;6.808;2023-03-15T08:56:13;101620.56;;;13.27;52.02
68871;BME280;55906;52.278;6.808;2023-03-15T08:58:40;101623.59;;;13.10;50.86
68871;BME280;55906;52.278;6.808;2023-03-15T09:01:09;101632.50;;;13.14;47.23
68871;BME280;55906;52.278;6.808;2023-03-15T09:03:36;101633.41;;;13.46;48.58
68871;BME280;55906;52.278;6.808;2023-03-15T09:06:03;101625.38;;;13.76;49.20
68871;BME280;55906;52.278;6.808;2023-03-15T09:08:30;101629.38;;;13.96;48.19
68871;BME280;55906;52.278;6.808;2023-03-15T09:10:59;101628.16;;;14.18;46.05
68871;BME280;55906;52.278;6.808;2023-03-15T09:13:27;101627.53;;;14.67;47.82
68871;BME280;55906;52.278;6.808;2023-03-15T09:15:55;101623.28;;;14.74;44.62
68871;BME280;55906;52.278;6.808;2023-03-15T09:18:22;101623.91;;;14.62;45.01
68871;BME280;55906;52.278;6.808;2023-03-15T09:20:49;101618.53;;;14.59;43.10
68871;BME280;55906;52.278;6.808;2023-03-15T09:23:16;101623.03;;;14.63;43.62
68871;BME280;55906;52.278;6.808;2023-03-15T09:25:42;101624.38;;;14.43;42.96
68871;BME280;55906;52.278;6.808;2023-03-15T09:28:10;101631.56;;;14.49;42.01
68871;BME280;55906;52.278;6.808;2023-03-15T09:30:39;101625.22;;;14.83;42.79
68871;BME280;55906;52.278;6.808;2023-03-15T09:33:06;101626.16;;;14.85;41.98
68871;BME280;55906;52.278;6.808;2023-03-15T09:35:33;101617.69;;;15.04;39.69
68871;BME280;55906;52.278;6.808;2023-03-15T09:38:00;101628.88;;;15.34;39.90
68871;BME280;55906;52.278;6.808;2023-03-15T09:40:29;101633.22;;;15.29;40.15
68871;BME280;55906;52.278;6.808;2023-03-15T09:43:01;101623.94;;;15.54;40.03
68871;BME280;55906;52.278;6.808;2023-03-15T09:45:40;101633.91;;;15.64;38.09
68871;BME280;55906;52.278;6.808;2023-03-15T09:48:10;101636.75;;;15.75;36.77
68871;BME280;55906;52.278;6.808;2023-03-15T09:50:40;101638.31;;;15.19;35.51
68871;BME280;55906;52.278;6.808;2023-03-15T09:53:13;101639.50;;;15.34;37.35
68871;BME280;55906;52.278;6.808;2023-03-15T09:55:43;101642.31;;;15.44;36.43
68871;BME280;55906;52.278;6.808;2023-03-15T09:58:14;101645.41;;;15.65;36.42
68871;BME280;55906;52.278;6.808;2023-03-15T10:00:45;101643.88;;;15.78;33.85
68871;BME280;55906;52.278;6.808;2023-03-15T10:03:17;101645.25;;;16.07;34.33
68871;BME280;55906;52.278;6.808;2023-03-15T10:05:51;101645.41;;;15.65;35.13
68871;BME280;55906;52.278;6.808;2023-03-15T10:08:22;101644.88;;;15.86;35.53
68871;BME280;55906;52.278;6.808;2023-03-15T10:10:52;101647.88;;;16.06;35.07
68871;BME280;55906;52.278;6.808;2023-03-15T10:13:29;101655.38;;;16.34;32.48
68871;BME280;55906;52.278;6.808;2023-03-15T10:16:07;101653.59;;;16.33;31.81
68871;BME280;55906;52.278;6.808;2023-03-15T10:18:54;101650.44;;;16.58;31.14
68871;BME280;55906;52.278;6.808;2023-03-15T10:21:32;101651.28;;;15.98;33.03
68871;BME280;55906;52.278;6.808;2023-03-15T10:24:01;101652.25;;;16.04;34.63
68871;BME280;55906;52.278;6.808;2023-03-15T10:26:32;101652.25;;;16.62;32.88
68871;BME280;55906;52.278;6.808;2023-03-15T10:29:02;101664.50;;;16.51;33.17
68871;BME280;55906;52.278;6.808;2023-03-15T10:31:39;101662.78;;;16.56;31.20
68871;BME280;55906;52.278;6.808;2023-03-15T10:34:08;101655.13;;;16.17;32.36
68871;BME280;55906;52.278;6.808;2023-03-15T10:36:35;101666.69;;;16.21;32.71
68871;BME280;55906;52.278;6.808;2023-03-15T10:39:02;101661.91;;;15.52;30.86
68871;BME280;55906;52.278;6.808;2023-03-15T10:41:39;101657.00;;;15.70;29.65
68871;BME280;55906;52.278;6.808;2023-03-15T10:44:10;101658.53;;;16.09;29.80
68871;BME280;55906;52.278;6.808;2023-03-15T10:46:39;101677.19;;;16.71;30.70
68871;BME280;55906;52.278;6.808;2023-03-15T10:49:10;101664.66;;;17.28;29.74
68871;BME280;55906;52.278;6.808;2023-03-15T10:51:39;101662.19;;;17.45;30.01
68871;BME280;55906;52.278;6.808;2023-03-15T10:54:12;101664.13;;;17.62;28.99
68871;BME280;55906;52.278;6.808;2023-03-15T10:56:45;101667.06;;;17.89;29.13
68871;BME280;55906;52.278;6.808;2023-03-15T10:59:18;101670.94;;;18.28;27.93
68871;BME280;55906;52.278;6.808;2023-03-15T11:01:47;101664.19;;;18.81;29.82
68871;BME280;55906;52.278;6.808;2023-03-15T11:04:18;101675.00;;;19.10;28.91
68871;BME280;55906;52.278;6.808;2023-03-15T11:06:48;101674.09;;;19.10;28.13
68871;BME280;55906;52.278;6.808;2023-03-15T11:09:17;101685.47;;;18.71;28.24
68871;BME280;55906;52.278;6.808;2023-03-15T11:12:04;101669.44;;;18.63;27.48
68871;BME280;55906;52.278;6.808;2023-03-15T11:14:34;101678.00;;;18.21;27.02
68871;BME280;55906;52.278;6.808;2023-03-15T11:17:04;101681.38;;;18.03;26.67
68871;BME280;55906;52.278;6.808;2023-03-15T11:19:36;101687.59;;;18.02;26.42
68871;BME280;55906;52.278;6.808;2023-03-15T11:22:04;101690.00;;;17.75;27.83
68871;BME280;55906;52.278;6.808;2023-03-15T11:24:32;101696.66;;;18.21;27.98
68871;BME280;55906;52.278;6.808;2023-03-15T11:27:00;101705.59;;;17.43;28.04
68871;BME280;55906;52.278;6.808;2023-03-15T11:29:30;101720.56;;;16.68;29.21
68871;BME280;55906;52.278;6.808;2023-03-15T11:31:57;101712.41;;;16.59;29.67
68871;BME280;55906;52.278;6.808;2023-03-15T11:34:35;101714.41;;;16.16;28.45
68871;BME280;55906;52.278;6.808;2023-03-15T11:37:11;101718.97;;;15.74;29.28
68871;BME280;55906;52.278;6.808;2023-03-15T11:39:42;101726.47;;;15.54;29.98
68871;BME280;55906;52.278;6.808;2023-03-15T11:42:15;101718.47;;;15.07;30.55
68871;BME280;55906;52.278;6.808;2023-03-15T11:44:46;101727.13;;;14.59;30.51
68871;BME280;55906;52.278;6.808;2023-03-15T11:47:19;101715.78;;;15.05;30.93
68871;BME280;55906;52.278;6.808;2023-03-15T11:49:52;101713.03;;;15.88;30.01
68871;BME280;55906;52.278;6.808;2023-03-15T11:52:21;101721.66;;;15.75;30.69
68871;BME280;55906;52.278;6.808;2023-03-15T11:54:49;101724.72;;;16.52;30.01
68871;BME280;55906;52.278;6.808;2023-03-15T11:57:39;101721.00;;;16.97;27.70
68871;BME280;55906;52.278;6.808;2023-03-15T12:03:38;101708.63;;;17.73;27.39
68871;BME280;55906;52.278;6.808;2023-03-15T12:06:12;101706.59;;;18.45;25.96
68871;BME280;55906;52.278;6.808;2023-03-15T12:08:44;101710.78;;;19.52;26.98
68871;BME280;55906;52.278;6.808;2023-03-15T12:11:37;101715.31;;;20.23;26.77
68871;BME280;55906;52.278;6.808;2023-03-15T12:14:21;101706.41;;;20.24;25.88
68871;BME280;55906;52.278;6.808;2023-03-15T12:16:51;101701.94;;;19.80;26.04
68871;BME280;55906;52.278;6.808;2023-03-15T12:19:24;101698.34;;;19.68;24.50
68871;BME280;55906;52.278;6.808;2023-03-15T12:21:52;101702.78;;;19.60;25.85
68871;BME280;55906;52.278;6.808;2023-03-15T12:24:24;101699.09;;;19.32;24.87
68871;BME280;55906;52.278;6.808;2023-03-15T12:27:00;101710.84;;;20.16;25.13
68871;BME280;55906;52.278;6.808;2023-03-15T12:29:29;101709.00;;;20.79;25.35
68871;BME280;55906;52.278;6.808;2023-03-15T12:32:04;101698.25;;;21.06;23.92
68871;BME280;55906;52.278;6.808;2023-03-15T12:34:43;101710.66;;;21.30;22.91
68871;BME280;55906;52.278;6.808;2023-03-15T12:37:14;101700.00;;;21.12;23.62
68871;BME280;55906;52.278;6.808;2023-03-15T12:39:47;101716.19;;;20.59;23.69
68871;BME280;55906;52.278;6.808;2023-03-15T12:45:45;101709.97;;;20.48;23.09
68871;BME280;55906;52.278;6.808;2023-03-15T12:48:24;101707.28;;;19.88;24.02
68871;BME280;55906;52.278;6.808;2023-03-15T12:50:57;101707.06;;;19.23;25.50
68871;BME280;55906;52.278;6.808;2023-03-15T12:53:33;101712.28;;;19.00;24.98
68871;BME280;55906;52.278;6.808;2023-03-15T12:59:22;101711.75;;;20.12;23.57
68871;BME280;55906;52.278;6.808;2023-03-15T13:01:54;101709.97;;;20.08;24.69
68871;BME280;55906;52.278;6.808;2023-03-15T13:04:20;101706.34;;;19.57;25.56
68871;BME280;55906;52.278;6.808;2023-03-15T13:07:16;101713.19;;;19.02;25.35
68871;BME280;55906;52.278;6.808;2023-03-15T13:09:59;101705.13;;;18.88;25.62
68871;BME280;55906;52.278;6.808;2023-03-15T13:12:31;101710.63;;;19.23;25.48
68871;BME280;55906;52.278;6.808;2023-03-15T13:15:05;101722.38;;;19.60;24.76
68871;BME280;55906;52.278;6.808;2023-03-15T13:17:41;101705.50;;;20.21;22.54
68871;BME280;55906;52.278;6.808;2023-03-15T13:20:24;101717.06;;;20.71;22.80
68871;BME280;55906;52.278;6.808;2023-03-15T13:23:03;101717.09;;;20.55;21.51
68871;BME280;55906;52.278;6.808;2023-03-15T13:25:34;101715.28;;;20.66;21.09
68871;BME280;55906;52.278;6.808;2023-03-15T13:28:06;101715.25;;;20.78;20.91